40.9°F
Current conditions from King Hill
Updated every 5 minutes
 
  Tuesday March 28, 2017

Observations for Westford

Westford

44° 37' 39"N, 73° 02' 29"W, Elevation 850 ft.
Eastern Time

Hourly observations for the last 72 hours

Date Time Temperature (°F) Humi-
dity

(%)
Wind
(mph)
Pressure Rain (in)
Air Dew 6 Hour 1 Hr 3 Hr 6 Hr Day
Alt
(in)
Sea
Level

(mb)
Max Min
28 06:00 40.9 39.8 96 SSW 6 G 10 29.86 1011.3 0.00
28 05:00 40.6 39.8 97 S 6 G 10 29.87 1011.6 0.00
28 04:00 39.6 38.8 97 S 4 G 10 29.88 1011.9 0.00
28 03:00 39.4 38.6 97 SSW 7 G 11 29.89 1012.1 0.00
28 02:00 38.8 38.0 39.1 35.1 97 SSW 5 G 8 29.90 1012.5 0.00
28 01:00 38.0 37.2 97 S 5 G 9 29.91 1012.9 0.00
28 00:00 35.3 34.5 97 Calm 29.91 1012.9 0.00
27 23:00 38.6 37.6 96 S 2 G 7 29.91 1013.0 0.00
27 22:00 38.0 37.0 96 SSW 1 G 8 29.92 1013.4 0.00
27 21:00 37.8 36.8 96 SSW 0 G 5 29.93 1013.6 0.00
27 20:00 36.2 34.9 40.0 36.1 95 Calm 29.92 1013.4 0.00
27 19:00 37.7 36.1 94 Calm 29.92 1013.1 0.00
27 18:00 38.4 36.6 93 SSW 0 G 6 29.91 1013.0 0.00
27 17:00 39.9 37.2 90 SSE 2 G 8 29.91 1012.9 0.00
27 16:00 39.5 37.1 91 S 2 G 8 29.92 1013.3 0.00
27 15:00 38.2 36.6 94 SSW 1 G 7 29.93 1013.5 0.00
27 14:00 37.5 35.9 37.9 33.5 94 SSW 4 G 9 29.95 1014.4 0.00
27 13:00 37.1 35.5 94 SSW 3 G 10 29.97 1014.8 0.00
27 12:00 37.7 36.4 95 S 4 G 10 29.98 1015.2 0.00
27 11:00 36.2 34.9 95 SSW 5 G 9 30.00 1015.8 0.00
27 10:00 34.8 33.5 95 SSW 4 G 8 30.01 1016.3 0.00
27 09:00 33.7 32.4 95 SSW 2 G 7 30.01 1016.4 0.00
27 08:00 33.5 32.2 34.4 32.7 95 SSW 4 G 8 30.02 1016.6 0.00
27 07:00 33.1 31.8 95 S 1 G 10 30.03 1017.0 0.00
27 06:00 33.4 32.1 95 S 6 G 11 30.04 1017.4 0.00
27 05:00 32.7 30.9 93 S 7 G 14 30.06 1018.1 0.00
27 04:00 33.9 30.7 88 SSW 8 G 16 30.08 1018.5 0.00
27 03:00 34.3 30.6 86 S 7 G 15 30.11 1019.6 0.00
27 02:00 34.4 30.4 34.4 33.2 85 S 5 G 15 30.14 1020.8 0.00
27 01:00 34.4 30.4 85 S 5 G 13 30.16 1021.5 0.00
27 00:00 33.9 30.4 87 S 4 G 13 30.18 1022.0 0.00
26 23:00 33.7 29.7 85 S 7 G 13 30.21 1023.0 0.00
26 22:00 33.4 28.5 82 S 3 G 10 30.24 1024.1 0.00
26 21:00 33.4 28.2 81 SSE 3 G 8 30.26 1024.9 0.00
26 20:00 34.3 26.9 41.7 33.4 74 SSW 0 G 7 30.29 1025.6 0.00
26 19:00 33.5 28.3 81 Calm 30.32 1026.7 0.00
26 18:00 34.5 27.1 74 Calm 30.33 1027.2 0.00
26 17:00 35.5 25.3 66 SSW 4 G 6 30.35 1027.8 0.00
26 16:00 38.8 22.2 51 SSW 3 G 10 30.35 1028.0 0.00
26 15:00 40.0 22.4 49 S 0 G 6 30.37 1028.6 0.00
26 14:00 41.6 18.5 41.8 13.4 39 WSW 3 G 8 30.39 1029.2 0.00
26 13:00 39.8 18.0 41 SW 5 G 10 30.42 1030.1 0.00
26 12:00 38.2 16.6 41 SW 3 G 8 30.44 1031.0 0.00
26 11:00 34.0 12.8 41 ENE 2 G 5 30.47 1031.7 0.00
26 10:00 29.3 13.4 51 Calm 30.48 1032.2 0.00
26 09:00 23.2 14.9 70 Calm 30.49 1032.4 0.00
26 08:00 13.4 10.0 18.1 10.9 86 Calm 30.48 1032.3 0.00
26 07:00 11.0 7.6 86 Calm 30.48 1032.3 0.00
26 06:00 13.3 11.2 91 Calm 30.47 1031.8 0.00
26 05:00 13.2 11.1 91 Calm 30.47 1032.0 0.00
26 04:00 13.0 9.6 86 Calm 30.47 1031.7 0.00
26 03:00 15.2 12.0 87 Calm 30.47 1031.7 0.00
26 02:00 18.0 13.7 23.8 16.4 83 Calm 30.45 1031.2 0.00
26 01:00 17.6 15.2 90 Calm 30.45 1031.2 0.00
26 00:00 16.4 13.7 89 Calm 30.44 1030.9 0.00
25 23:00 20.1 16.3 85 Calm 30.45 1031.3 0.00
25 22:00 18.6 15.9 89 Calm 30.45 1031.2 0.00
25 21:00 21.1 18.1 88 Calm 30.44 1030.7 0.00
25 20:00 23.8 20.0 33.3 23.8 85 Calm 30.41 1029.8 0.00
25 19:00 27.8 20.6 74 Calm 30.39 1029.3 0.00
25 18:00 31.8 21.4 65 WNW 1 G 6 30.37 1028.4 0.00
25 17:00 32.0 24.7 74 WNW 3 G 8 30.35 1027.9 0.00
25 16:00 30.8 26.3 83 NW 0 G 9 30.34 1027.6 0.00
25 15:00 31.8 28.7 88 NNW 2 G 7 30.33 1027.2 0.00
25 14:00 32.4 29.8 34.5 29.6 90 NW 3 G 7 30.33 1027.0 0.00
25 13:00 33.5 30.9 90 E 0 G 7 30.30 1026.1 0.00
25 12:00 34.2 31.6 90 NNE 2 G 9 30.28 1025.3 0.00
25 11:00 33.2 31.7 94 NNW 0 G 6 30.27 1025.1 0.00
25 10:00 32.7 31.4 95 NW 1 G 5 30.26 1024.7 0.00
25 09:00 31.5 30.5 96 Calm 30.24 1024.2 0.00
25 08:00 29.6 28.9 30.7 29.0 97 Calm 30.22 1023.4 0.00
25 07:00 29.0 28.3 97 WSW 0 G 3 30.19 1022.5 0.00

Data generated by WxSolution Version 1.9.0.6, Build 2017.01.14.


 
 
Current Radar Loop:

Copyright © WestfordWeather.net 2007-2017. All rights reserved.